sensor_id;sensor_type;location;lat;lon;timestamp;P1;durP1;ratioP1;P2;durP2;ratioP2
76320;SDS011;65132;52.088;5.402;2023-06-14T00:01:00;3.70;;;2.30;;
76320;SDS011;65132;52.088;5.402;2023-06-14T00:03:45;3.80;;;2.65;;
76320;SDS011;65132;52.088;5.402;2023-06-14T00:06:31;4.65;;;2.60;;
76320;SDS011;65132;52.088;5.402;2023-06-14T00:09:07;6.15;;;2.28;;
76320;SDS011;65132;52.088;5.402;2023-06-14T00:11:33;5.28;;;2.47;;
76320;SDS011;65132;52.088;5.402;2023-06-14T00:14:02;5.32;;;2.88;;
76320;SDS011;65132;52.088;5.402;2023-06-14T00:16:34;5.82;;;2.53;;
76320;SDS011;65132;52.088;5.402;2023-06-14T00:19:04;4.65;;;1.60;;
76320;SDS011;65132;52.088;5.402;2023-06-14T00:21:38;8.20;;;3.13;;
76320;SDS011;65132;52.088;5.402;2023-06-14T00:24:15;4.53;;;2.45;;
76320;SDS011;65132;52.088;5.402;2023-06-14T00:26:47;5.18;;;2.33;;
76320;SDS011;65132;52.088;5.402;2023-06-14T00:29:18;4.93;;;2.67;;
76320;SDS011;65132;52.088;5.402;2023-06-14T00:31:47;5.85;;;2.60;;
76320;SDS011;65132;52.088;5.402;2023-06-14T00:34:17;4.15;;;2.50;;
76320;SDS011;65132;52.088;5.402;2023-06-14T00:36:48;5.13;;;2.63;;
76320;SDS011;65132;52.088;5.402;2023-06-14T00:39:18;8.50;;;2.80;;
76320;SDS011;65132;52.088;5.402;2023-06-14T00:41:51;6.05;;;2.92;;
76320;SDS011;65132;52.088;5.402;2023-06-14T00:44:19;5.40;;;2.50;;
76320;SDS011;65132;52.088;5.402;2023-06-14T00:46:47;4.82;;;2.80;;
76320;SDS011;65132;52.088;5.402;2023-06-14T00:49:14;6.47;;;2.80;;
76320;SDS011;65132;52.088;5.402;2023-06-14T00:51:42;3.90;;;2.45;;
76320;SDS011;65132;52.088;5.402;2023-06-14T00:54:15;5.93;;;2.90;;
76320;SDS011;65132;52.088;5.402;2023-06-14T00:56:41;4.90;;;2.50;;
76320;SDS011;65132;52.088;5.402;2023-06-14T00:59:15;5.22;;;2.50;;
76320;SDS011;65132;52.088;5.402;2023-06-14T01:01:49;4.78;;;2.60;;
76320;SDS011;65132;52.088;5.402;2023-06-14T01:04:19;3.65;;;1.90;;
76320;SDS011;65132;52.088;5.402;2023-06-14T01:09:37;5.43;;;2.60;;
76320;SDS011;65132;52.088;5.402;2023-06-14T01:12:24;5.35;;;2.90;;
76320;SDS011;65132;52.088;5.402;2023-06-14T01:15:08;4.18;;;2.50;;
76320;SDS011;65132;52.088;5.402;2023-06-14T01:17:39;3.78;;;2.47;;
76320;SDS011;65132;52.088;5.402;2023-06-14T01:20:11;3.90;;;1.95;;
76320;SDS011;65132;52.088;5.402;2023-06-14T01:22:55;7.13;;;2.95;;
76320;SDS011;65132;52.088;5.402;2023-06-14T01:25:22;4.60;;;2.65;;
76320;SDS011;65132;52.088;5.402;2023-06-14T01:28:06;5.47;;;3.03;;
76320;SDS011;65132;52.088;5.402;2023-06-14T01:30:41;4.95;;;2.63;;
76320;SDS011;65132;52.088;5.402;2023-06-14T01:33:09;4.18;;;2.88;;
76320;SDS011;65132;52.088;5.402;2023-06-14T01:35:48;5.25;;;2.90;;
76320;SDS011;65132;52.088;5.402;2023-06-14T01:38:29;5.63;;;2.30;;
76320;SDS011;65132;52.088;5.402;2023-06-14T01:41:13;5.18;;;2.50;;
76320;SDS011;65132;52.088;5.402;2023-06-14T01:43:48;7.40;;;2.83;;
76320;SDS011;65132;52.088;5.402;2023-06-14T01:46:16;4.97;;;2.80;;
76320;SDS011;65132;52.088;5.402;2023-06-14T01:48:43;5.22;;;3.08;;
76320;SDS011;65132;52.088;5.402;2023-06-14T01:51:14;5.38;;;2.33;;
76320;SDS011;65132;52.088;5.402;2023-06-14T01:53:41;5.78;;;2.55;;
76320;SDS011;65132;52.088;5.402;2023-06-14T01:56:08;4.30;;;2.65;;
76320;SDS011;65132;52.088;5.402;2023-06-14T01:58:37;5.35;;;2.45;;
76320;SDS011;65132;52.088;5.402;2023-06-14T02:01:07;4.82;;;2.65;;
76320;SDS011;65132;52.088;5.402;2023-06-14T02:03:38;3.53;;;2.47;;
76320;SDS011;65132;52.088;5.402;2023-06-14T02:06:04;7.70;;;2.88;;
76320;SDS011;65132;52.088;5.402;2023-06-14T02:08:35;6.93;;;2.63;;
76320;SDS011;65132;52.088;5.402;2023-06-14T02:11:05;4.63;;;2.90;;
76320;SDS011;65132;52.088;5.402;2023-06-14T02:13:31;5.43;;;2.85;;
76320;SDS011;65132;52.088;5.402;2023-06-14T02:15:58;5.93;;;2.60;;
76320;SDS011;65132;52.088;5.402;2023-06-14T02:18:24;6.30;;;3.00;;
76320;SDS011;65132;52.088;5.402;2023-06-14T02:20:52;5.97;;;3.25;;
76320;SDS011;65132;52.088;5.402;2023-06-14T02:23:18;4.95;;;2.08;;
76320;SDS011;65132;52.088;5.402;2023-06-14T02:25:46;5.07;;;2.60;;
76320;SDS011;65132;52.088;5.402;2023-06-14T02:28:23;5.20;;;2.58;;
76320;SDS011;65132;52.088;5.402;2023-06-14T02:30:50;6.30;;;2.42;;
76320;SDS011;65132;52.088;5.402;2023-06-14T02:33:19;7.45;;;2.85;;
76320;SDS011;65132;52.088;5.402;2023-06-14T02:35:53;4.07;;;2.50;;
76320;SDS011;65132;52.088;5.402;2023-06-14T02:38:19;4.03;;;2.67;;
76320;SDS011;65132;52.088;5.402;2023-06-14T02:40:46;9.23;;;3.10;;
76320;SDS011;65132;52.088;5.402;2023-06-14T02:43:21;5.10;;;2.58;;
76320;SDS011;65132;52.088;5.402;2023-06-14T02:45:56;5.85;;;3.00;;
76320;SDS011;65132;52.088;5.402;2023-06-14T02:48:24;4.68;;;2.70;;
76320;SDS011;65132;52.088;5.402;2023-06-14T02:50:50;4.20;;;1.90;;
76320;SDS011;65132;52.088;5.402;2023-06-14T02:53:17;6.63;;;2.97;;
76320;SDS011;65132;52.088;5.402;2023-06-14T02:55:51;4.25;;;2.70;;
76320;SDS011;65132;52.088;5.402;2023-06-14T02:58:19;4.30;;;1.92;;
76320;SDS011;65132;52.088;5.402;2023-06-14T03:00:48;6.07;;;2.40;;
76320;SDS011;65132;52.088;5.402;2023-06-14T03:03:14;4.85;;;2.55;;
76320;SDS011;65132;52.088;5.402;2023-06-14T03:05:45;6.13;;;3.00;;
76320;SDS011;65132;52.088;5.402;2023-06-14T03:08:13;5.85;;;2.28;;
76320;SDS011;65132;52.088;5.402;2023-06-14T03:10:42;6.82;;;2.30;;
76320;SDS011;65132;52.088;5.402;2023-06-14T03:13:12;7.60;;;2.83;;
76320;SDS011;65132;52.088;5.402;2023-06-14T03:15:42;6.72;;;2.22;;
76320;SDS011;65132;52.088;5.402;2023-06-14T03:18:13;4.78;;;2.53;;
76320;SDS011;65132;52.088;5.402;2023-06-14T03:20:45;5.80;;;3.08;;
76320;SDS011;65132;52.088;5.402;2023-06-14T03:23:18;4.95;;;2.30;;
76320;SDS011;65132;52.088;5.402;2023-06-14T03:25:46;6.43;;;2.75;;
76320;SDS011;65132;52.088;5.402;2023-06-14T03:31:07;5.38;;;2.90;;
76320;SDS011;65132;52.088;5.402;2023-06-14T03:33:34;4.28;;;2.08;;
76320;SDS011;65132;52.088;5.402;2023-06-14T03:36:04;7.88;;;3.13;;
76320;SDS011;65132;52.088;5.402;2023-06-14T03:38:35;4.57;;;2.30;;
76320;SDS011;65132;52.088;5.402;2023-06-14T03:41:01;4.35;;;2.17;;
76320;SDS011;65132;52.088;5.402;2023-06-14T03:43:30;8.27;;;2.88;;
76320;SDS011;65132;52.088;5.402;2023-06-14T03:45:57;5.20;;;2.45;;
76320;SDS011;65132;52.088;5.402;2023-06-14T03:48:30;5.80;;;2.72;;
76320;SDS011;65132;52.088;5.402;2023-06-14T03:51:10;3.92;;;2.35;;
76320;SDS011;65132;52.088;5.402;2023-06-14T03:53:36;4.75;;;2.78;;
76320;SDS011;65132;52.088;5.402;2023-06-14T03:56:19;5.50;;;2.75;;
76320;SDS011;65132;52.088;5.402;2023-06-14T03:58:45;5.50;;;3.10;;
76320;SDS011;65132;52.088;5.402;2023-06-14T04:01:19;4.13;;;1.85;;
76320;SDS011;65132;52.088;5.402;2023-06-14T04:03:50;4.40;;;2.72;;
76320;SDS011;65132;52.088;5.402;2023-06-14T04:06:24;4.25;;;2.53;;
76320;SDS011;65132;52.088;5.402;2023-06-14T04:08:55;4.22;;;2.47;;
76320;SDS011;65132;52.088;5.402;2023-06-14T04:11:29;5.10;;;1.90;;
76320;SDS011;65132;52.088;5.402;2023-06-14T04:13:58;5.05;;;2.72;;
76320;SDS011;65132;52.088;5.402;2023-06-14T04:16:30;6.22;;;2.65;;
76320;SDS011;65132;52.088;5.402;2023-06-14T04:18:57;5.32;;;2.58;;
76320;SDS011;65132;52.088;5.402;2023-06-14T04:21:23;9.23;;;3.20;;
76320;SDS011;65132;52.088;5.402;2023-06-14T04:24:10;5.20;;;2.70;;
76320;SDS011;65132;52.088;5.402;2023-06-14T04:26:43;5.22;;;2.42;;
76320;SDS011;65132;52.088;5.402;2023-06-14T04:29:14;7.20;;;2.55;;
76320;SDS011;65132;52.088;5.402;2023-06-14T04:31:40;5.63;;;2.75;;
76320;SDS011;65132;52.088;5.402;2023-06-14T04:34:07;4.85;;;3.20;;
76320;SDS011;65132;52.088;5.402;2023-06-14T04:36:36;4.88;;;2.30;;
76320;SDS011;65132;52.088;5.402;2023-06-14T04:39:11;5.47;;;2.70;;
76320;SDS011;65132;52.088;5.402;2023-06-14T04:41:46;5.82;;;3.42;;
76320;SDS011;65132;52.088;5.402;2023-06-14T04:44:12;6.07;;;2.30;;
76320;SDS011;65132;52.088;5.402;2023-06-14T04:46:39;5.60;;;3.40;;
76320;SDS011;65132;52.088;5.402;2023-06-14T04:49:07;4.65;;;3.03;;
76320;SDS011;65132;52.088;5.402;2023-06-14T04:51:33;4.97;;;2.83;;
76320;SDS011;65132;52.088;5.402;2023-06-14T04:53:59;7.07;;;2.70;;
76320;SDS011;65132;52.088;5.402;2023-06-14T04:56:31;4.35;;;2.70;;
76320;SDS011;65132;52.088;5.402;2023-06-14T04:59:05;6.22;;;2.85;;
76320;SDS011;65132;52.088;5.402;2023-06-14T05:01:47;5.93;;;2.25;;
76320;SDS011;65132;52.088;5.402;2023-06-14T05:04:17;5.85;;;2.55;;
76320;SDS011;65132;52.088;5.402;2023-06-14T05:06:48;5.70;;;3.28;;
76320;SDS011;65132;52.088;5.402;2023-06-14T05:09:23;6.07;;;2.90;;
76320;SDS011;65132;52.088;5.402;2023-06-14T05:11:51;5.35;;;2.85;;
76320;SDS011;65132;52.088;5.402;2023-06-14T05:14:18;7.10;;;2.92;;
76320;SDS011;65132;52.088;5.402;2023-06-14T05:16:44;6.68;;;2.60;;
76320;SDS011;65132;52.088;5.402;2023-06-14T05:19:11;7.40;;;2.85;;
76320;SDS011;65132;52.088;5.402;2023-06-14T05:21:37;4.63;;;2.47;;
76320;SDS011;65132;52.088;5.402;2023-06-14T05:24:09;5.70;;;2.70;;
76320;SDS011;65132;52.088;5.402;2023-06-14T05:26:35;4.53;;;2.30;;
76320;SDS011;65132;52.088;5.402;2023-06-14T05:29:11;5.32;;;2.75;;
76320;SDS011;65132;52.088;5.402;2023-06-14T05:31:40;7.00;;;2.63;;
76320;SDS011;65132;52.088;5.402;2023-06-14T05:34:10;5.07;;;2.50;;
76320;SDS011;65132;52.088;5.402;2023-06-14T05:36:36;10.38;;;3.03;;
76320;SDS011;65132;52.088;5.402;2023-06-14T05:39:05;3.80;;;2.20;;
76320;SDS011;65132;52.088;5.402;2023-06-14T05:41:34;6.25;;;2.45;;
76320;SDS011;65132;52.088;5.402;2023-06-14T05:44:01;4.72;;;2.60;;
76320;SDS011;65132;52.088;5.402;2023-06-14T05:46:48;5.97;;;2.45;;
76320;SDS011;65132;52.088;5.402;2023-06-14T05:49:19;5.55;;;3.20;;
76320;SDS011;65132;52.088;5.402;2023-06-14T05:51:45;5.05;;;2.90;;
76320;SDS011;65132;52.088;5.402;2023-06-14T05:54:12;4.55;;;2.53;;
76320;SDS011;65132;52.088;5.402;2023-06-14T05:56:41;5.68;;;2.63;;
76320;SDS011;65132;52.088;5.402;2023-06-14T05:59:10;5.75;;;2.55;;
76320;SDS011;65132;52.088;5.402;2023-06-14T06:01:39;5.40;;;3.60;;
76320;SDS011;65132;52.088;5.402;2023-06-14T06:04:10;5.32;;;2.78;;
76320;SDS011;65132;52.088;5.402;2023-06-14T06:06:37;6.68;;;2.97;;
76320;SDS011;65132;52.088;5.402;2023-06-14T06:09:03;5.03;;;2.28;;
76320;SDS011;65132;52.088;5.402;2023-06-14T06:11:30;7.22;;;2.60;;
76320;SDS011;65132;52.088;5.402;2023-06-14T06:14:13;5.35;;;2.63;;
76320;SDS011;65132;52.088;5.402;2023-06-14T06:16:40;7.80;;;3.00;;
76320;SDS011;65132;52.088;5.402;2023-06-14T06:19:06;7.05;;;2.50;;
76320;SDS011;65132;52.088;5.402;2023-06-14T06:21:35;5.60;;;2.30;;
76320;SDS011;65132;52.088;5.402;2023-06-14T06:24:08;5.95;;;3.00;;
76320;SDS011;65132;52.088;5.402;2023-06-14T06:26:39;5.93;;;2.70;;
76320;SDS011;65132;52.088;5.402;2023-06-14T06:29:16;8.27;;;3.00;;
76320;SDS011;65132;52.088;5.402;2023-06-14T06:31:43;5.20;;;2.70;;
76320;SDS011;65132;52.088;5.402;2023-06-14T06:34:09;4.78;;;2.65;;
76320;SDS011;65132;52.088;5.402;2023-06-14T06:36:39;10.13;;;3.88;;
76320;SDS011;65132;52.088;5.402;2023-06-14T06:39:07;6.95;;;2.13;;
76320;SDS011;65132;52.088;5.402;2023-06-14T06:41:34;9.80;;;2.90;;
76320;SDS011;65132;52.088;5.402;2023-06-14T06:44:14;4.68;;;2.40;;
76320;SDS011;65132;52.088;5.402;2023-06-14T06:46:40;6.82;;;3.00;;
76320;SDS011;65132;52.088;5.402;2023-06-14T06:49:07;4.18;;;2.35;;
76320;SDS011;65132;52.088;5.402;2023-06-14T06:51:35;4.15;;;2.50;;
76320;SDS011;65132;52.088;5.402;2023-06-14T06:54:06;4.22;;;2.50;;
76320;SDS011;65132;52.088;5.402;2023-06-14T06:56:33;7.35;;;2.95;;
76320;SDS011;65132;52.088;5.402;2023-06-14T06:59:01;5.43;;;2.35;;
76320;SDS011;65132;52.088;5.402;2023-06-14T07:01:33;6.78;;;2.10;;
76320;SDS011;65132;52.088;5.402;2023-06-14T07:04:01;5.13;;;2.80;;
76320;SDS011;65132;52.088;5.402;2023-06-14T07:06:30;5.35;;;2.50;;
76320;SDS011;65132;52.088;5.402;2023-06-14T07:08:57;4.88;;;2.95;;
76320;SDS011;65132;52.088;5.402;2023-06-14T07:11:26;5.13;;;2.80;;
76320;SDS011;65132;52.088;5.402;2023-06-14T07:13:55;6.10;;;2.92;;
76320;SDS011;65132;52.088;5.402;2023-06-14T07:16:30;3.65;;;2.35;;
76320;SDS011;65132;52.088;5.402;2023-06-14T07:18:58;4.15;;;2.60;;
76320;SDS011;65132;52.088;5.402;2023-06-14T07:21:31;4.28;;;2.83;;
76320;SDS011;65132;52.088;5.402;2023-06-14T07:23:59;5.63;;;2.63;;
76320;SDS011;65132;52.088;5.402;2023-06-14T07:26:28;6.05;;;2.50;;
76320;SDS011;65132;52.088;5.402;2023-06-14T07:29:27;4.75;;;2.38;;
76320;SDS011;65132;52.088;5.402;2023-06-14T07:34:26;6.10;;;2.53;;
76320;SDS011;65132;52.088;5.402;2023-06-14T07:36:55;3.97;;;2.20;;
76320;SDS011;65132;52.088;5.402;2023-06-14T07:39:24;5.80;;;2.45;;
76320;SDS011;65132;52.088;5.402;2023-06-14T07:41:51;5.05;;;2.58;;
76320;SDS011;65132;52.088;5.402;2023-06-14T07:44:20;5.50;;;3.33;;
76320;SDS011;65132;52.088;5.402;2023-06-14T07:46:49;3.78;;;2.60;;
76320;SDS011;65132;52.088;5.402;2023-06-14T07:49:17;3.42;;;2.25;;
76320;SDS011;65132;52.088;5.402;2023-06-14T07:51:44;3.42;;;2.17;;
76320;SDS011;65132;52.088;5.402;2023-06-14T07:54:12;4.20;;;2.50;;
76320;SDS011;65132;52.088;5.402;2023-06-14T07:56:44;4.05;;;2.45;;
76320;SDS011;65132;52.088;5.402;2023-06-14T07:59:13;3.58;;;2.33;;
76320;SDS011;65132;52.088;5.402;2023-06-14T08:01:42;3.97;;;2.47;;
76320;SDS011;65132;52.088;5.402;2023-06-14T08:04:15;6.65;;;2.15;;
76320;SDS011;65132;52.088;5.402;2023-06-14T08:06:45;4.15;;;2.20;;
76320;SDS011;65132;52.088;5.402;2023-06-14T08:09:14;4.95;;;2.20;;
76320;SDS011;65132;52.088;5.402;2023-06-14T08:11:42;3.35;;;1.50;;
76320;SDS011;65132;52.088;5.402;2023-06-14T08:14:14;3.75;;;2.13;;
76320;SDS011;65132;52.088;5.402;2023-06-14T08:16:43;4.78;;;2.20;;
76320;SDS011;65132;52.088;5.402;2023-06-14T08:19:17;5.40;;;2.30;;
76320;SDS011;65132;52.088;5.402;2023-06-14T08:21:43;2.75;;;1.75;;
76320;SDS011;65132;52.088;5.402;2023-06-14T08:24:14;3.58;;;1.60;;
76320;SDS011;65132;52.088;5.402;2023-06-14T08:26:40;2.58;;;1.80;;
76320;SDS011;65132;52.088;5.402;2023-06-14T08:29:10;7.15;;;1.95;;
76320;SDS011;65132;52.088;5.402;2023-06-14T08:31:36;3.65;;;1.67;;
76320;SDS011;65132;52.088;5.402;2023-06-14T08:34:03;3.78;;;1.65;;
76320;SDS011;65132;52.088;5.402;2023-06-14T08:36:32;5.53;;;2.05;;
76320;SDS011;65132;52.088;5.402;2023-06-14T08:38:59;3.97;;;1.77;;
76320;SDS011;65132;52.088;5.402;2023-06-14T08:41:26;2.53;;;1.70;;
76320;SDS011;65132;52.088;5.402;2023-06-14T08:43:56;4.63;;;2.00;;
76320;SDS011;65132;52.088;5.402;2023-06-14T08:46:35;3.13;;;1.67;;
76320;SDS011;65132;52.088;5.402;2023-06-14T08:49:03;5.18;;;1.55;;
76320;SDS011;65132;52.088;5.402;2023-06-14T08:51:30;2.75;;;2.00;;
76320;SDS011;65132;52.088;5.402;2023-06-14T08:53:59;2.30;;;1.40;;
76320;SDS011;65132;52.088;5.402;2023-06-14T08:56:26;2.40;;;1.42;;
76320;SDS011;65132;52.088;5.402;2023-06-14T09:23:44;2.25;;;1.33;;
76320;SDS011;65132;52.088;5.402;2023-06-14T09:28:48;2.75;;;1.00;;
76320;SDS011;65132;52.088;5.402;2023-06-14T09:31:16;3.65;;;1.88;;
76320;SDS011;65132;52.088;5.402;2023-06-14T09:33:45;4.38;;;1.25;;
76320;SDS011;65132;52.088;5.402;2023-06-14T09:36:20;2.33;;;1.30;;
76320;SDS011;65132;52.088;5.402;2023-06-14T09:39:22;2.92;;;1.60;;
76320;SDS011;65132;52.088;5.402;2023-06-14T09:41:43;4.30;;;1.48;;
76320;SDS011;65132;52.088;5.402;2023-06-14T09:44:11;3.85;;;1.33;;
76320;SDS011;65132;52.088;5.402;2023-06-14T09:46:53;2.17;;;0.93;;
76320;SDS011;65132;52.088;5.402;2023-06-14T09:49:22;3.95;;;1.50;;
76320;SDS011;65132;52.088;5.402;2023-06-14T09:51:50;2.88;;;1.38;;
76320;SDS011;65132;52.088;5.402;2023-06-14T09:54:20;3.78;;;1.50;;
76320;SDS011;65132;52.088;5.402;2023-06-14T09:56:53;2.50;;;1.42;;
76320;SDS011;65132;52.088;5.402;2023-06-14T09:59:27;2.78;;;1.67;;
76320;SDS011;65132;52.088;5.402;2023-06-14T10:02:01;2.75;;;1.20;;
76320;SDS011;65132;52.088;5.402;2023-06-14T10:04:33;4.93;;;1.30;;
76320;SDS011;65132;52.088;5.402;2023-06-14T10:07:00;2.15;;;1.50;;
76320;SDS011;65132;52.088;5.402;2023-06-14T10:09:33;3.35;;;1.63;;
76320;SDS011;65132;52.088;5.402;2023-06-14T10:12:03;2.70;;;1.42;;
76320;SDS011;65132;52.088;5.402;2023-06-14T10:14:31;2.42;;;1.70;;
76320;SDS011;65132;52.088;5.402;2023-06-14T10:17:08;2.58;;;1.20;;
76320;SDS011;65132;52.088;5.402;2023-06-14T10:36:26;2.10;;;0.90;;
76320;SDS011;65132;52.088;5.402;2023-06-14T10:39:04;3.03;;;1.23;;
76320;SDS011;65132;52.088;5.402;2023-06-14T10:44:30;4.43;;;0.90;;
76320;SDS011;65132;52.088;5.402;2023-06-14T10:47:01;3.33;;;1.38;;
76320;SDS011;65132;52.088;5.402;2023-06-14T10:49:43;2.65;;;1.42;;
76320;SDS011;65132;52.088;5.402;2023-06-14T10:52:17;4.53;;;1.35;;
76320;SDS011;65132;52.088;5.402;2023-06-14T11:00:21;4.03;;;1.02;;
76320;SDS011;65132;52.088;5.402;2023-06-14T11:05:42;3.60;;;1.60;;
76320;SDS011;65132;52.088;5.402;2023-06-14T11:10:46;2.92;;;1.70;;
76320;SDS011;65132;52.088;5.402;2023-06-14T11:13:18;3.63;;;1.60;;
76320;SDS011;65132;52.088;5.402;2023-06-14T11:15:45;4.95;;;1.98;;
76320;SDS011;65132;52.088;5.402;2023-06-14T11:18:16;1.98;;;0.90;;
76320;SDS011;65132;52.088;5.402;2023-06-14T11:20:42;3.20;;;1.40;;
76320;SDS011;65132;52.088;5.402;2023-06-14T11:23:12;4.38;;;1.05;;
76320;SDS011;65132;52.088;5.402;2023-06-14T11:25:38;3.70;;;1.63;;
76320;SDS011;65132;52.088;5.402;2023-06-14T11:28:10;2.30;;;1.10;;
76320;SDS011;65132;52.088;5.402;2023-06-14T11:30:39;4.50;;;1.55;;
76320;SDS011;65132;52.088;5.402;2023-06-14T11:33:09;2.78;;;1.10;;
76320;SDS011;65132;52.088;5.402;2023-06-14T11:35:36;2.83;;;1.08;;
76320;SDS011;65132;52.088;5.402;2023-06-14T11:38:03;4.32;;;2.33;;
76320;SDS011;65132;52.088;5.402;2023-06-14T11:40:30;2.90;;;1.42;;
76320;SDS011;65132;52.088;5.402;2023-06-14T11:43:00;2.88;;;1.33;;
76320;SDS011;65132;52.088;5.402;2023-06-14T11:45:28;2.50;;;1.02;;
76320;SDS011;65132;52.088;5.402;2023-06-14T11:47:58;3.88;;;1.20;;
76320;SDS011;65132;52.088;5.402;2023-06-14T11:50:26;2.63;;;1.20;;
76320;SDS011;65132;52.088;5.402;2023-06-14T11:52:56;2.42;;;1.05;;
76320;SDS011;65132;52.088;5.402;2023-06-14T11:55:28;3.30;;;1.40;;
76320;SDS011;65132;52.088;5.402;2023-06-14T11:57:54;3.45;;;1.50;;
76320;SDS011;65132;52.088;5.402;2023-06-14T12:00:26;2.42;;;1.40;;
76320;SDS011;65132;52.088;5.402;2023-06-14T12:02:53;3.05;;;1.20;;
76320;SDS011;65132;52.088;5.402;2023-06-14T12:05:25;2.55;;;1.67;;
76320;SDS011;65132;52.088;5.402;2023-06-14T12:07:58;4.55;;;1.63;;
76320;SDS011;65132;52.088;5.402;2023-06-14T12:10:26;2.17;;;1.30;;
76320;SDS011;65132;52.088;5.402;2023-06-14T12:12:56;3.40;;;1.25;;
76320;SDS011;65132;52.088;5.402;2023-06-14T12:15:24;2.33;;;1.33;;
76320;SDS011;65132;52.088;5.402;2023-06-14T12:17:50;3.92;;;1.30;;
76320;SDS011;65132;52.088;5.402;2023-06-14T12:20:20;1.98;;;1.17;;
76320;SDS011;65132;52.088;5.402;2023-06-14T12:22:50;4.78;;;1.65;;
76320;SDS011;65132;52.088;5.402;2023-06-14T12:25:33;3.30;;;1.23;;
76320;SDS011;65132;52.088;5.402;2023-06-14T12:28:06;2.78;;;1.52;;
76320;SDS011;65132;52.088;5.402;2023-06-14T12:30:35;9.50;;;1.90;;
76320;SDS011;65132;52.088;5.402;2023-06-14T12:35:37;4.95;;;1.17;;
76320;SDS011;65132;52.088;5.402;2023-06-14T12:38:04;3.75;;;1.08;;
76320;SDS011;65132;52.088;5.402;2023-06-14T12:40:30;3.40;;;1.73;;
76320;SDS011;65132;52.088;5.402;2023-06-14T12:42:57;4.18;;;1.35;;
76320;SDS011;65132;52.088;5.402;2023-06-14T12:45:25;3.95;;;1.30;;
76320;SDS011;65132;52.088;5.402;2023-06-14T12:47:51;2.22;;;1.30;;
76320;SDS011;65132;52.088;5.402;2023-06-14T12:53:00;3.17;;;1.38;;
76320;SDS011;65132;52.088;5.402;2023-06-14T12:55:26;6.10;;;1.08;;
76320;SDS011;65132;52.088;5.402;2023-06-14T12:57:53;2.13;;;0.80;;
76320;SDS011;65132;52.088;5.402;2023-06-14T13:00:22;2.55;;;0.93;;
76320;SDS011;65132;52.088;5.402;2023-06-14T13:02:49;1.98;;;0.82;;
76320;SDS011;65132;52.088;5.402;2023-06-14T13:05:16;4.40;;;1.00;;
76320;SDS011;65132;52.088;5.402;2023-06-14T13:07:44;2.22;;;1.00;;
76320;SDS011;65132;52.088;5.402;2023-06-14T13:10:11;6.38;;;1.00;;
76320;SDS011;65132;52.088;5.402;2023-06-14T13:12:38;2.05;;;1.27;;
76320;SDS011;65132;52.088;5.402;2023-06-14T13:15:05;2.80;;;1.27;;
76320;SDS011;65132;52.088;5.402;2023-06-14T13:17:37;4.82;;;1.08;;
76320;SDS011;65132;52.088;5.402;2023-06-14T13:20:11;2.92;;;1.10;;
76320;SDS011;65132;52.088;5.402;2023-06-14T13:22:46;3.13;;;1.20;;
76320;SDS011;65132;52.088;5.402;2023-06-14T13:25:15;2.70;;;1.10;;
76320;SDS011;65132;52.088;5.402;2023-06-14T13:27:41;2.92;;;1.00;;
76320;SDS011;65132;52.088;5.402;2023-06-14T13:30:12;3.65;;;1.40;;
76320;SDS011;65132;52.088;5.402;2023-06-14T13:35:19;3.17;;;1.30;;
76320;SDS011;65132;52.088;5.402;2023-06-14T14:04:39;2.90;;;1.20;;
76320;SDS011;65132;52.088;5.402;2023-06-14T14:07:06;2.33;;;1.25;;
76320;SDS011;65132;52.088;5.402;2023-06-14T14:09:35;5.03;;;1.20;;
76320;SDS011;65132;52.088;5.402;2023-06-14T14:12:01;3.15;;;1.10;;
76320;SDS011;65132;52.088;5.402;2023-06-14T14:17:05;3.22;;;1.40;;
76320;SDS011;65132;52.088;5.402;2023-06-14T14:19:38;5.07;;;1.40;;
76320;SDS011;65132;52.088;5.402;2023-06-14T14:22:04;2.65;;;1.27;;
76320;SDS011;65132;52.088;5.402;2023-06-14T14:24:31;2.63;;;0.90;;
76320;SDS011;65132;52.088;5.402;2023-06-14T14:26:57;2.05;;;1.10;;
76320;SDS011;65132;52.088;5.402;2023-06-14T14:29:24;2.10;;;1.00;;
76320;SDS011;65132;52.088;5.402;2023-06-14T14:31:56;3.50;;;1.00;;
76320;SDS011;65132;52.088;5.402;2023-06-14T14:34:24;3.20;;;1.20;;
76320;SDS011;65132;52.088;5.402;2023-06-14T14:36:50;2.20;;;0.98;;
76320;SDS011;65132;52.088;5.402;2023-06-14T14:39:17;2.95;;;0.98;;
76320;SDS011;65132;52.088;5.402;2023-06-14T14:41:44;1.92;;;0.98;;
76320;SDS011;65132;52.088;5.402;2023-06-14T14:44:14;1.83;;;0.88;;
76320;SDS011;65132;52.088;5.402;2023-06-14T14:46:41;3.13;;;1.17;;
76320;SDS011;65132;52.088;5.402;2023-06-14T14:49:07;1.95;;;1.25;;
76320;SDS011;65132;52.088;5.402;2023-06-14T14:51:34;2.22;;;1.10;;
76320;SDS011;65132;52.088;5.402;2023-06-14T14:54:03;1.75;;;0.90;;
76320;SDS011;65132;52.088;5.402;2023-06-14T14:58:56;2.20;;;1.00;;
76320;SDS011;65132;52.088;5.402;2023-06-14T15:01:26;3.38;;;0.98;;
76320;SDS011;65132;52.088;5.402;2023-06-14T15:03:53;5.15;;;1.98;;
76320;SDS011;65132;52.088;5.402;2023-06-14T15:06:25;2.22;;;1.05;;
76320;SDS011;65132;52.088;5.402;2023-06-14T15:08:58;3.60;;;0.90;;
76320;SDS011;65132;52.088;5.402;2023-06-14T15:11:25;4.25;;;0.68;;
76320;SDS011;65132;52.088;5.402;2023-06-14T15:13:52;3.05;;;1.40;;
76320;SDS011;65132;52.088;5.402;2023-06-14T15:16:19;3.88;;;1.27;;
76320;SDS011;65132;52.088;5.402;2023-06-14T15:18:45;2.83;;;1.63;;
76320;SDS011;65132;52.088;5.402;2023-06-14T15:21:17;2.78;;;1.00;;
76320;SDS011;65132;52.088;5.402;2023-06-14T15:23:52;2.40;;;0.90;;
76320;SDS011;65132;52.088;5.402;2023-06-14T15:26:24;6.13;;;2.22;;
76320;SDS011;65132;52.088;5.402;2023-06-14T15:29:12;2.88;;;1.02;;
76320;SDS011;65132;52.088;5.402;2023-06-14T15:31:46;5.38;;;1.15;;
76320;SDS011;65132;52.088;5.402;2023-06-14T15:34:17;5.80;;;1.02;;
76320;SDS011;65132;52.088;5.402;2023-06-14T15:36:46;2.40;;;1.17;;
76320;SDS011;65132;52.088;5.402;2023-06-14T15:39:15;2.67;;;1.40;;
76320;SDS011;65132;52.088;5.402;2023-06-14T15:41:49;2.45;;;1.10;;
76320;SDS011;65132;52.088;5.402;2023-06-14T15:44:17;2.70;;;1.27;;
76320;SDS011;65132;52.088;5.402;2023-06-14T15:46:46;3.15;;;1.08;;
76320;SDS011;65132;52.088;5.402;2023-06-14T15:49:16;3.10;;;1.02;;
76320;SDS011;65132;52.088;5.402;2023-06-14T15:51:43;2.53;;;1.25;;
76320;SDS011;65132;52.088;5.402;2023-06-14T15:54:12;3.00;;;1.08;;
76320;SDS011;65132;52.088;5.402;2023-06-14T15:56:41;6.30;;;1.33;;
76320;SDS011;65132;52.088;5.402;2023-06-14T15:59:07;2.30;;;1.55;;
76320;SDS011;65132;52.088;5.402;2023-06-14T16:01:43;4.07;;;1.83;;
76320;SDS011;65132;52.088;5.402;2023-06-14T16:04:15;2.88;;;2.22;;
76320;SDS011;65132;52.088;5.402;2023-06-14T16:06:45;1.88;;;1.40;;
76320;SDS011;65132;52.088;5.402;2023-06-14T16:09:11;3.42;;;1.20;;
76320;SDS011;65132;52.088;5.402;2023-06-14T16:11:38;3.35;;;1.25;;
76320;SDS011;65132;52.088;5.402;2023-06-14T16:14:04;3.25;;;1.70;;
76320;SDS011;65132;52.088;5.402;2023-06-14T16:16:51;2.33;;;1.20;;
76320;SDS011;65132;52.088;5.402;2023-06-14T16:19:19;3.15;;;1.73;;
76320;SDS011;65132;52.088;5.402;2023-06-14T16:21:45;3.08;;;2.00;;
76320;SDS011;65132;52.088;5.402;2023-06-14T16:24:11;2.67;;;1.25;;
76320;SDS011;65132;52.088;5.402;2023-06-14T16:26:43;2.05;;;0.95;;
76320;SDS011;65132;52.088;5.402;2023-06-14T16:29:10;3.47;;;1.25;;
76320;SDS011;65132;52.088;5.402;2023-06-14T16:31:39;3.83;;;1.90;;
76320;SDS011;65132;52.088;5.402;2023-06-14T16:34:05;2.35;;;1.20;;
76320;SDS011;65132;52.088;5.402;2023-06-14T16:36:34;2.08;;;1.40;;
76320;SDS011;65132;52.088;5.402;2023-06-14T16:39:00;2.97;;;2.05;;
76320;SDS011;65132;52.088;5.402;2023-06-14T16:46:32;2.30;;;1.30;;
76320;SDS011;65132;52.088;5.402;2023-06-14T16:49:01;3.60;;;1.52;;
76320;SDS011;65132;52.088;5.402;2023-06-14T16:51:29;2.28;;;1.67;;
76320;SDS011;65132;52.088;5.402;2023-06-14T16:54:01;2.20;;;1.08;;
76320;SDS011;65132;52.088;5.402;2023-06-14T16:56:33;3.13;;;1.65;;